createdAt,value
2019-05-23T00:01:31.735Z,63164.04
2019-05-23T00:04:16.434Z,63160.97
2019-05-23T00:06:44.271Z,63158.25
2019-05-23T00:09:10.538Z,63150.71
2019-05-23T00:11:47.754Z,63145.26
2019-05-23T00:14:37.348Z,63144.37
2019-05-23T00:17:04.651Z,63140.21
2019-05-23T00:19:32.000Z,63135.84
2019-05-23T00:21:58.239Z,63133.66
2019-05-23T00:24:26.674Z,63128.31
2019-05-23T00:26:53.220Z,63127.79
2019-05-23T00:29:20.373Z,63127.99
2019-05-23T00:31:51.680Z,63127.44
2019-05-23T00:34:19.312Z,63126.34
2019-05-23T00:36:46.061Z,63119.91
2019-05-23T00:39:14.001Z,63126.42
2019-05-23T00:41:41.347Z,63121.29
2019-05-23T00:44:08.277Z,63111.71
2019-05-23T00:46:36.830Z,63113.77
2019-05-23T00:49:04.156Z,63111.59
2019-05-23T00:51:31.107Z,63108.29
2019-05-23T00:53:57.940Z,63106.87
2019-05-23T00:56:26.097Z,63104.14
2019-05-23T00:58:53.677Z,63097.52
2019-05-23T01:01:20.733Z,63100.87
2019-05-23T01:03:47.674Z,63098.35
2019-05-23T01:06:14.388Z,63095.95
2019-05-23T01:08:40.630Z,63093.22
2019-05-23T01:11:07.352Z,63088.22
2019-05-23T01:13:33.608Z,63089.07
2019-05-23T01:16:00.386Z,63088.65
2019-05-23T01:18:26.772Z,63085.37
2019-05-23T01:20:57.848Z,63079.82
2019-05-23T01:23:26.215Z,63081.00
2019-05-23T01:25:52.762Z,63075.32
2019-05-23T01:28:20.241Z,63079.03
2019-05-23T01:30:48.282Z,63077.52
2019-05-23T01:33:14.707Z,63072.95
2019-05-23T01:35:41.247Z,63070.08
2019-05-23T01:38:07.578Z,63065.71
2019-05-23T01:40:35.426Z,63061.13
2019-05-23T01:43:01.649Z,63062.43
2019-05-23T01:45:29.501Z,63058.75
2019-05-23T01:47:57.142Z,63057.11
2019-05-23T01:50:25.406Z,63052.96
2019-05-23T01:52:52.246Z,63051.52
2019-05-23T01:55:19.561Z,63050.64
2019-05-23T01:57:46.705Z,63047.37
2019-05-23T02:00:15.155Z,63046.27
2019-05-23T02:02:41.693Z,63043.75
2019-05-23T02:05:09.449Z,63036.70
2019-05-23T02:07:36.679Z,63038.22
2019-05-23T02:10:05.642Z,63037.13
2019-05-23T02:12:32.977Z,63038.00
2019-05-23T02:14:59.923Z,63036.25
2019-05-23T02:17:26.671Z,63031.66
2019-05-23T02:19:53.006Z,63032.29
2019-05-23T02:22:19.844Z,63026.21
2019-05-23T02:24:46.083Z,63025.86
2019-05-23T02:27:12.372Z,63020.54
2019-05-23T02:29:39.293Z,63017.47
2019-05-23T02:32:06.536Z,63013.12
2019-05-23T02:34:32.778Z,63017.02
2019-05-23T02:37:01.025Z,63009.08
2019-05-23T02:39:45.502Z,63008.95
2019-05-23T02:42:13.866Z,63005.68
2019-05-23T02:44:40.908Z,63004.59
2019-05-23T02:47:11.714Z,63003.16
2019-05-23T02:49:38.844Z,63000.23
2019-05-23T02:52:22.361Z,62995.66
2019-05-23T02:54:51.401Z,62994.57
2019-05-23T02:57:19.242Z,62991.30
2019-05-23T02:59:49.141Z,62993.67
2019-05-23T03:02:46.771Z,62991.50
2019-05-23T03:05:15.905Z,62988.78
2019-05-23T03:07:43.973Z,62985.83
2019-05-23T03:10:12.418Z,62984.21
2019-05-23T03:12:40.562Z,62982.98
2019-05-23T03:15:08.098Z,62984.06
2019-05-23T03:17:42.395Z,62981.26
2019-05-23T03:20:10.840Z,62982.23
2019-05-23T03:22:49.785Z,62978.19
2019-05-23T03:25:39.015Z,62977.66
2019-05-23T03:28:08.968Z,62973.62
2019-05-23T03:30:43.369Z,62972.32
2019-05-23T03:33:09.611Z,62971.45
2019-05-23T03:35:40.742Z,62973.50
2019-05-23T03:38:08.575Z,62973.70
2019-05-23T03:40:35.738Z,62970.23
2019-05-23T03:43:03.279Z,62964.24
2019-05-23T03:45:38.476Z,62962.94
2019-05-23T03:48:03.177Z,62963.56
2019-05-23T03:50:30.011Z,62958.77
2019-05-23T03:52:56.369Z,62958.97
2019-05-23T03:55:24.291Z,62953.66
2019-05-23T03:57:52.320Z,62953.45
2019-05-23T04:00:20.466Z,62958.10
2019-05-23T04:02:48.697Z,62950.18
2019-05-23T04:05:15.740Z,62950.06
2019-05-23T04:07:41.980Z,62950.06
2019-05-23T04:10:08.731Z,62945.49
2019-05-23T04:12:35.302Z,62945.89
2019-05-23T04:15:03.157Z,62943.84
2019-05-23T04:17:29.404Z,62943.84
2019-05-23T04:19:55.655Z,62944.59
2019-05-23T04:22:22.310Z,62945.02
2019-05-23T04:24:48.849Z,62942.42
2019-05-23T04:27:15.394Z,62946.99
2019-05-23T04:29:41.636Z,62946.57
2019-05-23T04:32:09.329Z,62950.18
2019-05-23T04:34:35.631Z,62950.26
2019-05-23T04:37:02.787Z,62944.19
2019-05-23T04:39:29.925Z,62946.64
2019-05-23T04:41:56.357Z,62944.05
2019-05-23T04:44:22.587Z,62940.15
2019-05-23T04:46:49.424Z,62944.72
2019-05-23T04:49:15.855Z,62943.30
2019-05-23T04:51:42.606Z,62941.80
2019-05-23T04:54:08.939Z,62947.32
2019-05-23T04:56:35.463Z,62946.57
2019-05-23T04:59:02.710Z,62952.43
2019-05-23T05:01:29.551Z,62948.54
2019-05-23T05:03:55.789Z,62955.85
2019-05-23T05:06:22.024Z,62955.50
2019-05-23T05:08:48.967Z,62958.89
2019-05-23T05:11:15.697Z,62956.60
2019-05-23T05:13:41.925Z,62955.30
2019-05-23T05:16:08.449Z,62952.16
2019-05-23T05:18:35.797Z,62948.76
2019-05-23T05:21:02.026Z,62950.93
2019-05-23T05:23:28.483Z,62951.36
2019-05-23T05:25:54.737Z,62952.23
2019-05-23T05:28:21.012Z,62948.61
2019-05-23T05:30:47.348Z,62942.00
2019-05-23T05:33:13.694Z,62939.70
2019-05-23T05:35:40.624Z,62936.41
2019-05-23T05:38:07.029Z,62932.39
2019-05-23T05:40:33.311Z,62932.94
2019-05-23T05:43:01.672Z,62933.49
2019-05-23T05:45:28.097Z,62936.29
2019-05-23T05:47:54.622Z,62929.67
2019-05-23T05:50:21.065Z,62931.84
2019-05-23T05:52:47.890Z,62931.84
2019-05-23T05:55:14.637Z,62928.03
2019-05-23T05:57:40.864Z,62933.36
2019-05-23T06:00:13.106Z,62933.69
2019-05-23T06:02:39.769Z,62935.66
2019-05-23T06:05:07.205Z,62939.48
2019-05-23T06:07:34.833Z,62943.30
2019-05-23T06:10:02.879Z,62942.20
2019-05-23T06:12:29.415Z,62944.72
2019-05-23T06:14:55.655Z,62947.99
2019-05-23T06:17:22.485Z,62946.57
2019-05-23T06:19:48.934Z,62947.66
2019-05-23T06:22:15.409Z,62949.84
2019-05-23T06:24:49.209Z,62963.56
2019-05-23T06:27:14.651Z,62962.27
2019-05-23T06:29:40.900Z,62967.08
2019-05-23T06:32:08.953Z,62977.32
2019-05-23T06:34:35.384Z,62986.50
2019-05-23T06:37:01.823Z,62990.40
2019-05-23T06:39:28.050Z,62993.47
2019-05-23T06:41:54.591Z,62991.62
2019-05-23T06:44:20.816Z,63001.86
2019-05-23T06:46:47.566Z,63015.17
2019-05-23T06:49:13.785Z,63018.44
2019-05-23T06:51:40.145Z,63018.69
2019-05-23T06:54:06.386Z,63024.66
2019-05-23T06:56:32.932Z,63023.69
2019-05-23T06:58:59.162Z,63021.64
2019-05-23T07:01:25.409Z,63023.48
2019-05-23T07:03:52.054Z,63019.46
2019-05-23T07:06:22.079Z,63017.06
2019-05-23T07:08:48.314Z,63009.97
2019-05-23T07:11:18.180Z,63014.63
2019-05-23T07:13:45.915Z,63015.72
2019-05-23T07:16:12.373Z,63012.02
2019-05-23T07:18:40.716Z,63018.77
2019-05-23T07:21:08.206Z,63023.89
2019-05-23T07:23:34.621Z,63023.14
2019-05-23T07:26:00.956Z,63028.38
2019-05-23T07:28:27.314Z,63027.86
2019-05-23T07:30:53.648Z,63028.06
2019-05-23T07:33:19.914Z,63029.48
2019-05-23T07:35:46.189Z,63025.25
2019-05-23T07:38:12.440Z,63028.06
2019-05-23T07:40:38.631Z,63023.26
2019-05-23T07:43:06.683Z,63034.60
2019-05-23T07:45:34.714Z,63034.18
2019-05-23T07:48:01.134Z,63040.60
2019-05-23T07:50:27.481Z,63030.58
2019-05-23T07:52:55.996Z,63022.39
2019-05-23T07:55:30.522Z,63026.09
2019-05-23T07:57:56.849Z,63018.57
2019-05-23T08:00:24.909Z,63022.94
2019-05-23T08:02:51.650Z,63037.55
2019-05-23T08:05:18.794Z,63034.18
2019-05-23T08:07:45.330Z,63038.30
2019-05-23T08:10:11.886Z,63035.70
2019-05-23T08:12:38.609Z,63035.70
2019-05-23T08:15:05.472Z,63031.66
2019-05-23T08:17:32.702Z,63035.36
2019-05-23T08:19:59.110Z,63035.90
2019-05-23T08:22:25.349Z,63043.42
2019-05-23T08:24:52.024Z,63040.82
2019-05-23T08:27:18.475Z,63046.19
2019-05-23T08:29:45.320Z,63056.44
2019-05-23T08:32:12.081Z,63055.01
2019-05-23T08:34:42.455Z,63056.98
2019-05-23T08:37:08.464Z,63060.81
2019-05-23T08:39:34.744Z,63053.37
2019-05-23T08:42:01.831Z,63074.70
2019-05-23T08:44:28.056Z,63082.22
2019-05-23T08:46:54.397Z,63086.80
2019-05-23T08:49:21.650Z,63082.43
2019-05-23T08:51:47.891Z,63077.93
2019-05-23T08:54:14.347Z,63069.65
2019-05-23T08:56:40.687Z,63082.30
2019-05-23T08:59:08.222Z,63081.20
2019-05-23T09:01:35.603Z,63080.57
2019-05-23T09:04:01.878Z,63085.78
2019-05-23T09:06:28.159Z,63077.93
2019-05-23T09:08:54.381Z,63078.40
2019-05-23T09:11:21.315Z,63075.32
2019-05-23T09:13:47.882Z,63081.00
2019-05-23T09:16:14.143Z,63095.20
2019-05-23T09:18:40.417Z,63109.39
2019-05-23T09:21:06.953Z,63115.31
2019-05-23T09:23:33.204Z,63122.17
2019-05-23T09:25:59.480Z,63145.14
2019-05-23T09:28:25.852Z,63154.21
2019-05-23T09:30:52.085Z,63144.04
2019-05-23T09:33:18.439Z,63136.51
2019-05-23T09:35:45.584Z,63144.59
2019-05-23T09:38:11.837Z,63148.74
2019-05-23T09:40:38.086Z,63145.26
2019-05-23T09:43:04.923Z,63155.96
2019-05-23T09:45:31.486Z,63164.47
2019-05-23T09:47:58.292Z,63156.19
2019-05-23T09:50:24.929Z,63154.07
2019-05-23T09:52:51.195Z,63150.94
2019-05-23T09:55:17.586Z,63155.72
2019-05-23T09:57:44.004Z,63147.32
2019-05-23T10:00:12.485Z,63147.23
2019-05-23T10:02:38.822Z,63156.19
2019-05-23T10:05:10.934Z,63162.95
2019-05-23T10:07:37.294Z,63172.57
2019-05-23T10:10:04.778Z,63176.07
2019-05-23T10:12:31.012Z,63179.13
2019-05-23T10:14:57.560Z,63183.04
2019-05-23T10:17:24.239Z,63188.92
2019-05-23T10:19:50.564Z,63181.96
2019-05-23T10:22:17.139Z,63182.63
2019-05-23T10:24:43.387Z,63205.25
2019-05-23T10:27:11.445Z,63203.60
2019-05-23T10:29:37.686Z,63205.92
2019-05-23T10:32:05.539Z,63193.34
2019-05-23T10:34:31.983Z,63192.26
2019-05-23T10:36:58.369Z,63209.20
2019-05-23T10:39:24.610Z,63214.53
2019-05-23T10:41:50.990Z,63200.53
2019-05-23T10:44:17.221Z,63207.10
2019-05-23T10:46:43.474Z,63200.44
2019-05-23T10:49:10.429Z,63220.68
2019-05-23T10:51:36.759Z,63241.88
2019-05-23T10:54:03.206Z,63266.14
2019-05-23T10:56:29.469Z,63265.05
2019-05-23T10:58:56.035Z,63269.22
2019-05-23T11:01:22.691Z,63263.54
2019-05-23T11:03:48.942Z,63267.92
2019-05-23T11:06:17.037Z,63258.83
2019-05-23T11:08:43.900Z,63253.14
2019-05-23T11:11:14.189Z,63271.95
2019-05-23T11:13:39.190Z,63292.20
2019-05-23T11:16:05.448Z,63305.53
2019-05-23T11:18:31.905Z,63298.97
2019-05-23T11:20:58.221Z,63283.99
2019-05-23T11:23:26.764Z,63298.22
2019-05-23T11:25:53.364Z,63305.79
2019-05-23T11:28:19.807Z,63313.87
2019-05-23T11:30:50.599Z,63313.46
2019-05-23T11:33:17.128Z,63312.10
2019-05-23T11:35:44.313Z,63288.03
2019-05-23T11:38:10.565Z,63271.32
2019-05-23T11:40:36.916Z,63278.10
2019-05-23T11:43:03.161Z,63269.34
2019-05-23T11:45:31.201Z,63266.41
2019-05-23T11:47:57.488Z,63270.36
2019-05-23T11:50:23.689Z,63271.40
2019-05-23T11:52:50.036Z,63276.88
2019-05-23T11:55:16.375Z,63277.64
2019-05-23T11:57:42.741Z,63265.74
2019-05-23T12:00:11.056Z,63253.49
2019-05-23T12:02:39.617Z,63244.30
2019-05-23T12:05:07.751Z,63255.67
2019-05-23T12:07:34.501Z,63258.95
2019-05-23T12:10:00.832Z,63260.26
2019-05-23T12:12:27.173Z,63245.71
2019-05-23T12:14:53.713Z,63240.58
2019-05-23T12:17:21.516Z,63235.77
2019-05-23T12:19:48.475Z,63230.52
2019-05-23T12:22:15.796Z,63232.37
2019-05-23T12:24:42.043Z,63225.59
2019-05-23T12:27:08.314Z,63231.15
2019-05-23T12:29:34.643Z,63237.62
2019-05-23T12:32:01.169Z,63244.49
2019-05-23T12:34:27.847Z,63234.78
2019-05-23T12:37:14.329Z,63219.58
2019-05-23T12:39:22.717Z,63202.56
2019-05-23T12:41:48.969Z,63194.23
2019-05-23T12:44:17.561Z,63194.32
2019-05-23T12:46:43.460Z,63182.08
2019-05-23T12:49:11.505Z,63183.71
2019-05-23T12:51:41.939Z,63177.27
2019-05-23T12:54:08.629Z,63180.23
2019-05-23T12:56:35.637Z,63175.65
2019-05-23T12:59:03.012Z,63169.50
2019-05-23T13:01:29.266Z,63172.57
2019-05-23T13:03:56.210Z,63168.75
2019-05-23T13:06:22.764Z,63168.20
2019-05-23T13:08:49.011Z,63169.73
2019-05-23T13:11:15.637Z,63163.92
2019-05-23T13:13:41.880Z,63159.55
2019-05-23T13:16:08.119Z,63160.97
2019-05-23T13:18:34.463Z,63166.22
2019-05-23T13:21:00.690Z,63153.44
2019-05-23T13:23:27.232Z,63153.12
2019-05-23T13:25:53.733Z,63150.39
2019-05-23T13:28:20.013Z,63146.57
2019-05-23T13:30:46.256Z,63139.12
2019-05-23T13:33:12.808Z,63139.87
2019-05-23T13:35:39.149Z,63135.21
2019-05-23T13:38:05.509Z,63128.41
2019-05-23T13:40:31.734Z,63121.98
2019-05-23T13:42:58.219Z,63119.99
2019-05-23T13:45:24.498Z,63109.86
2019-05-23T13:47:50.754Z,63115.39
2019-05-23T13:50:18.402Z,63113.77
2019-05-23T13:52:44.981Z,63115.07
2019-05-23T13:55:11.312Z,63111.16
2019-05-23T13:57:37.538Z,63109.52
2019-05-23T14:00:05.494Z,63107.89
2019-05-23T14:02:31.838Z,63104.94
2019-05-23T14:04:58.189Z,63117.47
2019-05-23T14:07:26.034Z,63111.92
2019-05-23T14:09:52.610Z,63112.34
2019-05-23T14:12:21.201Z,63118.55
2019-05-23T14:14:47.467Z,63114.86
2019-05-23T14:17:18.272Z,63113.01
2019-05-23T14:19:44.530Z,63111.16
2019-05-23T14:22:10.755Z,63116.61
2019-05-23T14:24:38.040Z,63120.46
2019-05-23T14:27:12.139Z,63122.17
2019-05-23T14:29:38.735Z,63120.46
2019-05-23T14:32:12.709Z,63126.68
2019-05-23T14:34:38.935Z,63121.62
2019-05-23T14:37:15.991Z,63110.82
2019-05-23T14:39:43.015Z,63107.68
2019-05-23T14:42:16.616Z,63107.34
2019-05-23T14:44:42.843Z,63104.82
2019-05-23T14:47:20.147Z,63107.62
2019-05-23T14:50:06.017Z,63098.27
2019-05-23T14:52:34.549Z,63094.10
2019-05-23T14:55:02.595Z,63092.27
2019-05-23T14:57:29.134Z,63091.92
2019-05-23T14:59:55.893Z,63086.17
2019-05-23T15:02:23.258Z,63096.50
2019-05-23T15:04:49.506Z,63101.42
2019-05-23T15:07:15.783Z,63101.42
2019-05-23T15:09:42.423Z,63101.54
2019-05-23T15:12:09.253Z,63096.76
2019-05-23T15:14:36.670Z,63100.79
2019-05-23T15:17:03.442Z,63111.04
2019-05-23T15:19:41.755Z,63110.90
2019-05-23T15:21:58.679Z,63112.12
2019-05-23T15:24:25.226Z,63115.39
2019-05-23T15:26:51.561Z,63120.68
2019-05-23T15:29:17.907Z,63121.44
2019-05-23T15:31:59.161Z,63114.32
2019-05-23T15:34:12.291Z,63104.82
2019-05-23T15:36:38.528Z,63114.86
2019-05-23T15:39:10.019Z,63115.74
2019-05-23T15:41:35.431Z,63120.32
2019-05-23T15:44:01.692Z,63116.70
2019-05-23T15:46:27.922Z,63106.99
2019-05-23T15:48:54.180Z,63111.79
2019-05-23T15:51:22.292Z,63101.54
2019-05-23T15:54:02.841Z,63103.27
2019-05-23T15:56:46.080Z,63104.27
2019-05-23T15:59:22.707Z,63100.99
2019-05-23T16:01:53.262Z,63109.60
2019-05-23T16:04:21.121Z,63108.76
2019-05-23T16:06:47.459Z,63106.24
2019-05-23T16:09:28.597Z,63099.37
2019-05-23T16:11:42.991Z,63100.79
2019-05-23T16:14:09.219Z,63103.72
2019-05-23T16:16:35.876Z,63103.72
2019-05-23T16:19:02.154Z,63104.35
2019-05-23T16:21:28.372Z,63098.06
2019-05-23T16:23:54.618Z,63104.27
2019-05-23T16:26:20.964Z,63102.84
2019-05-23T16:28:47.254Z,63103.52
2019-05-23T16:31:13.752Z,63099.14
2019-05-23T16:33:39.998Z,63097.59
2019-05-23T16:36:06.540Z,63096.62
2019-05-23T16:38:32.774Z,63095.54
2019-05-23T16:40:59.017Z,63091.72
2019-05-23T16:43:25.258Z,63090.62
2019-05-23T16:45:51.644Z,63090.74
2019-05-23T16:48:17.856Z,63099.57
2019-05-23T16:50:44.092Z,63096.07
2019-05-23T16:53:10.352Z,63094.10
2019-05-23T16:55:47.232Z,63093.02
2019-05-23T16:58:27.164Z,63090.07
2019-05-23T17:00:55.193Z,63090.15
2019-05-23T17:03:35.027Z,63083.64
2019-05-23T17:06:21.336Z,63083.18
2019-05-23T17:08:51.898Z,63081.35
2019-05-23T17:11:29.730Z,63072.95
2019-05-23T17:14:00.933Z,63066.73
2019-05-23T17:16:28.989Z,63067.68
2019-05-23T17:18:59.845Z,63068.57
2019-05-23T17:21:30.771Z,63069.65
2019-05-23T17:24:01.373Z,63068.98
2019-05-23T17:26:38.239Z,63067.68
2019-05-23T17:29:24.728Z,63064.20
2019-05-23T17:31:52.760Z,63065.85
2019-05-23T17:34:19.024Z,63070.08
2019-05-23T17:36:45.374Z,63068.57
2019-05-23T17:39:12.225Z,63069.88
2019-05-23T17:41:38.966Z,63074.65
2019-05-23T17:44:05.192Z,63074.25
2019-05-23T17:46:31.573Z,63075.32
2019-05-23T17:48:57.798Z,63067.48
2019-05-23T17:51:24.056Z,63071.73
2019-05-23T17:53:50.283Z,63066.93
2019-05-23T17:56:17.354Z,63069.75
2019-05-23T17:58:43.589Z,63068.35
2019-05-23T18:01:10.440Z,63065.85
2019-05-23T18:03:36.675Z,63072.25
2019-05-23T18:06:03.576Z,63064.32
2019-05-23T18:08:29.826Z,63063.11
2019-05-23T18:10:56.313Z,63058.96
2019-05-23T18:13:22.539Z,63059.16
2019-05-23T18:15:49.215Z,63061.21
2019-05-23T18:18:15.465Z,63055.46
2019-05-23T18:20:42.305Z,63054.59
2019-05-23T18:23:09.747Z,63054.59
2019-05-23T18:25:36.593Z,63053.84
2019-05-23T18:28:03.959Z,63052.74
2019-05-23T18:30:32.202Z,63052.19
2019-05-23T18:32:59.344Z,63054.04
2019-05-23T18:35:26.483Z,63050.44
2019-05-23T18:37:53.030Z,63045.87
2019-05-23T18:40:19.671Z,63044.57
2019-05-23T18:42:46.117Z,63042.57
2019-05-23T18:45:13.652Z,63039.85
2019-05-23T18:47:41.704Z,63037.13
2019-05-23T18:50:09.437Z,63036.03
2019-05-23T18:52:35.791Z,63036.78
2019-05-23T18:55:03.843Z,63039.72
2019-05-23T18:57:30.095Z,63036.50
2019-05-23T18:59:56.328Z,63042.57
2019-05-23T19:02:23.484Z,63039.09
2019-05-23T19:04:50.715Z,63038.00
2019-05-23T19:07:17.014Z,63041.35
2019-05-23T19:09:43.473Z,63037.45
2019-05-23T19:12:12.939Z,63033.10
2019-05-23T19:14:39.492Z,63032.75
2019-05-23T19:17:06.922Z,63024.83
2019-05-23T19:19:33.465Z,63026.88
2019-05-23T19:21:59.919Z,63028.93
2019-05-23T19:24:26.649Z,63027.08
2019-05-23T19:26:53.384Z,63026.01
2019-05-23T19:29:20.499Z,63023.26
2019-05-23T19:31:46.904Z,63023.14
2019-05-23T19:34:13.555Z,63016.94
2019-05-23T19:36:40.087Z,63011.39
2019-05-23T19:39:06.326Z,63012.15
2019-05-23T19:41:37.478Z,63014.42
2019-05-23T19:44:00.691Z,63012.65
2019-05-23T19:46:27.323Z,63008.95
2019-05-23T19:48:54.604Z,63008.75
2019-05-23T19:51:21.607Z,63006.98
2019-05-23T19:53:47.866Z,63003.29
2019-05-23T19:56:14.093Z,63000.01
2019-05-23T19:58:41.016Z,62997.29
2019-05-23T20:01:07.678Z,62989.77
2019-05-23T20:03:34.335Z,62992.17
2019-05-23T20:06:00.966Z,62990.32
2019-05-23T20:08:27.218Z,62991.42
2019-05-23T20:10:53.461Z,62993.07
2019-05-23T20:13:19.703Z,62994.57
2019-05-23T20:15:46.288Z,62993.35
2019-05-23T20:18:13.083Z,62991.07
2019-05-23T20:20:39.421Z,62989.32
2019-05-23T20:23:05.656Z,62985.63
2019-05-23T20:25:31.926Z,62984.53
2019-05-23T20:27:58.158Z,62984.61
2019-05-23T20:30:44.471Z,62982.56
2019-05-23T20:33:10.700Z,62982.76
2019-05-23T20:35:36.954Z,62980.39
2019-05-23T20:38:03.387Z,62980.16
2019-05-23T20:40:30.025Z,62979.09
2019-05-23T20:42:56.250Z,62979.71
2019-05-23T20:45:22.491Z,62978.96
2019-05-23T20:47:48.724Z,62976.14
2019-05-23T20:50:15.072Z,62980.04
2019-05-23T20:52:41.529Z,62977.99
2019-05-23T20:55:07.769Z,62974.84
2019-05-23T20:57:33.997Z,62976.57
2019-05-23T21:00:00.352Z,62976.36
2019-05-23T21:02:27.087Z,62975.39
2019-05-23T21:04:53.357Z,62977.99
2019-05-23T21:07:19.598Z,62977.12
2019-05-23T21:09:45.931Z,62977.32
2019-05-23T21:12:28.450Z,62976.45
2019-05-23T21:14:40.331Z,62971.25
2019-05-23T21:17:06.577Z,62971.10
2019-05-23T21:19:33.109Z,62970.03
2019-05-23T21:21:59.471Z,62969.68
2019-05-23T21:24:25.804Z,62968.93
2019-05-23T21:26:52.064Z,62967.51
2019-05-23T21:29:18.327Z,62964.56
2019-05-23T21:31:44.580Z,62962.94
2019-05-23T21:34:11.052Z,62962.19
2019-05-23T21:36:37.398Z,62962.94
2019-05-23T21:39:06.847Z,62960.54
2019-05-23T21:41:33.109Z,62928.25
2019-05-23T21:43:59.345Z,62959.67
2019-05-23T21:46:25.574Z,62959.44
2019-05-23T21:48:51.817Z,62963.34
2019-05-23T21:51:21.074Z,62959.87
2019-05-23T21:53:47.324Z,62957.68
2019-05-23T21:56:13.561Z,62956.37
2019-05-23T21:58:39.800Z,62953.57
2019-05-23T22:01:09.558Z,62958.57
2019-05-23T22:03:47.968Z,62953.38
2019-05-23T22:06:16.118Z,62958.02
2019-05-23T22:08:43.588Z,62957.82
2019-05-23T22:11:10.144Z,62960.42
2019-05-23T22:13:36.376Z,62962.59
2019-05-23T22:16:02.717Z,62962.27
2019-05-23T22:18:29.653Z,62962.59
2019-05-23T22:20:55.876Z,62956.84
2019-05-23T22:23:22.220Z,62961.09
2019-05-23T22:25:48.445Z,62965.86
2019-05-23T22:28:15.080Z,62966.75
2019-05-23T22:30:41.330Z,62964.91
2019-05-23T22:33:08.359Z,62968.18
2019-05-23T22:35:34.913Z,62968.18
2019-05-23T22:38:01.259Z,62970.57
2019-05-23T22:40:27.502Z,62970.35
2019-05-23T22:42:56.337Z,62971.45
2019-05-23T22:45:24.389Z,62971.45
2019-05-23T22:47:50.625Z,62973.50
2019-05-23T22:50:17.169Z,62971.87
2019-05-23T22:52:43.412Z,62970.35
2019-05-23T22:55:09.749Z,62971.25
2019-05-23T22:57:36.189Z,62975.67
2019-05-23T23:00:04.351Z,62974.37
2019-05-23T23:02:30.680Z,62978.41
2019-05-23T23:04:56.928Z,62978.19
2019-05-23T23:07:23.167Z,62978.86
2019-05-23T23:09:49.410Z,62985.16
2019-05-23T23:12:15.648Z,62985.83
2019-05-23T23:14:41.891Z,62987.80
2019-05-23T23:17:08.141Z,62990.00
2019-05-23T23:19:34.375Z,62995.87
2019-05-23T23:22:00.629Z,62995.44
2019-05-23T23:24:26.861Z,62996.54
2019-05-23T23:26:53.109Z,63001.66
2019-05-23T23:31:50.751Z,63006.36
2019-05-23T23:34:16.984Z,63001.78
2019-05-23T23:36:43.332Z,63008.41
2019-05-23T23:39:09.581Z,63009.08
2019-05-23T23:41:35.837Z,63013.65
2019-05-23T23:44:02.087Z,63011.39
2019-05-23T23:46:46.495Z,63018.02
2019-05-23T23:49:31.014Z,63022.73
2019-05-23T23:52:16.126Z,63028.18
2019-05-23T23:55:00.511Z,63028.65
2019-05-23T23:57:45.810Z,63035.82
